sensor_id;sensor_type;location;lat;lon;timestamp;pressure;altitude;pressure_sealevel;temperature;humidity
50977;BME280;36992;48.200;12.418;2023-07-30T00:00:29;96404.38;;;22.76;54.34
50977;BME280;36992;48.200;12.418;2023-07-30T00:02:56;96394.94;;;22.73;54.73
50977;BME280;36992;48.200;12.418;2023-07-30T00:05:22;96392.19;;;22.73;54.64
50977;BME280;36992;48.200;12.418;2023-07-30T00:07:50;96384.75;;;22.74;54.30
50977;BME280;36992;48.200;12.418;2023-07-30T00:10:17;96381.97;;;22.70;54.48
50977;BME280;36992;48.200;12.418;2023-07-30T00:12:43;96377.25;;;22.67;54.05
50977;BME280;36992;48.200;12.418;2023-07-30T00:15:10;96370.19;;;22.66;54.61
50977;BME280;36992;48.200;12.418;2023-07-30T00:17:38;96367.44;;;22.66;54.34
50977;BME280;36992;48.200;12.418;2023-07-30T00:20:06;96371.38;;;22.65;53.89
50977;BME280;36992;48.200;12.418;2023-07-30T00:22:33;96369.75;;;22.64;54.24
50977;BME280;36992;48.200;12.418;2023-07-30T00:25:02;96372.13;;;22.66;54.62
50977;BME280;36992;48.200;12.418;2023-07-30T00:27:28;96370.56;;;22.64;54.32
50977;BME280;36992;48.200;12.418;2023-07-30T00:29:55;96382.34;;;22.65;54.39
50977;BME280;36992;48.200;12.418;2023-07-30T00:32:21;96382.34;;;22.65;54.60
50977;BME280;36992;48.200;12.418;2023-07-30T00:34:48;96387.03;;;22.64;54.91
50977;BME280;36992;48.200;12.418;2023-07-30T00:37:14;96388.97;;;22.64;54.57
50977;BME280;36992;48.200;12.418;2023-07-30T00:39:41;96388.56;;;22.62;54.97
50977;BME280;36992;48.200;12.418;2023-07-30T00:42:09;96398.38;;;22.63;54.55
50977;BME280;36992;48.200;12.418;2023-07-30T00:44:35;96402.69;;;22.60;55.17
50977;BME280;36992;48.200;12.418;2023-07-30T00:47:02;96405.81;;;22.59;55.16
50977;BME280;36992;48.200;12.418;2023-07-30T00:49:29;96406.56;;;22.56;54.78
50977;BME280;36992;48.200;12.418;2023-07-30T00:51:56;96402.63;;;22.53;54.88
50977;BME280;36992;48.200;12.418;2023-07-30T00:54:23;96410.41;;;22.51;54.94
50977;BME280;36992;48.200;12.418;2023-07-30T00:56:51;96402.56;;;22.49;55.30
50977;BME280;36992;48.200;12.418;2023-07-30T00:59:20;96408.03;;;22.49;55.28
50977;BME280;36992;48.200;12.418;2023-07-30T01:01:47;96423.31;;;22.47;55.29
50977;BME280;36992;48.200;12.418;2023-07-30T01:04:13;96419.00;;;22.46;55.23
50977;BME280;36992;48.200;12.418;2023-07-30T01:06:40;96420.94;;;22.45;54.96
50977;BME280;36992;48.200;12.418;2023-07-30T01:09:07;96425.25;;;22.43;55.52
50977;BME280;36992;48.200;12.418;2023-07-30T01:11:34;96425.63;;;22.41;55.08
50977;BME280;36992;48.200;12.418;2023-07-30T01:14:01;96419.34;;;22.41;55.15
50977;BME280;36992;48.200;12.418;2023-07-30T01:16:30;96422.44;;;22.39;55.04
50977;BME280;36992;48.200;12.418;2023-07-30T01:18:56;96422.03;;;22.37;55.19
50977;BME280;36992;48.200;12.418;2023-07-30T01:21:25;96416.56;;;22.37;55.03
50977;BME280;36992;48.200;12.418;2023-07-30T01:23:52;96427.88;;;22.32;54.96
50977;BME280;36992;48.200;12.418;2023-07-30T01:26:21;96423.94;;;22.33;54.83
50977;BME280;36992;48.200;12.418;2023-07-30T01:28:51;96416.13;;;22.31;55.29
50977;BME280;36992;48.200;12.418;2023-07-30T01:31:21;96431.38;;;22.29;55.47
50977;BME280;36992;48.200;12.418;2023-07-30T01:33:52;96422.34;;;22.28;55.65
50977;BME280;36992;48.200;12.418;2023-07-30T01:36:20;96429.00;;;22.27;56.03
50977;BME280;36992;48.200;12.418;2023-07-30T01:38:50;96428.63;;;22.29;55.37
50977;BME280;36992;48.200;12.418;2023-07-30T01:41:17;96425.06;;;22.24;56.00
50977;BME280;36992;48.200;12.418;2023-07-30T01:43:43;96429.78;;;22.24;55.96
50977;BME280;36992;48.200;12.418;2023-07-30T01:46:10;96419.16;;;22.22;55.86
50977;BME280;36992;48.200;12.418;2023-07-30T01:48:36;96404.66;;;22.22;55.91
50977;BME280;36992;48.200;12.418;2023-07-30T01:51:03;96397.59;;;22.21;56.19
50977;BME280;36992;48.200;12.418;2023-07-30T01:53:30;96398.41;;;22.21;55.61
50977;BME280;36992;48.200;12.418;2023-07-30T01:55:57;96396.06;;;22.23;55.51
50977;BME280;36992;48.200;12.418;2023-07-30T01:58:24;96403.88;;;22.21;55.96
50977;BME280;36992;48.200;12.418;2023-07-30T02:00:50;96418.00;;;22.23;56.44
50977;BME280;36992;48.200;12.418;2023-07-30T02:03:17;96414.44;;;22.23;56.17
50977;BME280;36992;48.200;12.418;2023-07-30T02:05:44;96403.47;;;22.23;56.60
50977;BME280;36992;48.200;12.418;2023-07-30T02:08:10;96398.78;;;22.23;56.44
50977;BME280;36992;48.200;12.418;2023-07-30T02:10:38;96399.59;;;22.24;56.25
50977;BME280;36992;48.200;12.418;2023-07-30T02:13:06;96410.16;;;22.26;56.26
50977;BME280;36992;48.200;12.418;2023-07-30T02:15:33;96407.03;;;22.23;56.44
50977;BME280;36992;48.200;12.418;2023-07-30T02:17:59;96393.69;;;22.22;56.18
50977;BME280;36992;48.200;12.418;2023-07-30T02:20:26;96398.41;;;22.21;56.30
50977;BME280;36992;48.200;12.418;2023-07-30T02:22:52;96392.88;;;22.18;56.30
50977;BME280;36992;48.200;12.418;2023-07-30T02:25:19;96393.66;;;22.18;56.46
50977;BME280;36992;48.200;12.418;2023-07-30T02:27:45;96385.00;;;22.16;56.20
50977;BME280;36992;48.200;12.418;2023-07-30T02:30:13;96386.97;;;22.16;56.31
50977;BME280;36992;48.200;12.418;2023-07-30T02:32:41;96388.94;;;22.15;56.04
50977;BME280;36992;48.200;12.418;2023-07-30T02:35:08;96384.59;;;22.14;55.83
50977;BME280;36992;48.200;12.418;2023-07-30T02:37:34;96387.31;;;22.14;56.26
50977;BME280;36992;48.200;12.418;2023-07-30T02:40:01;96388.50;;;22.13;56.24
50977;BME280;36992;48.200;12.418;2023-07-30T02:42:30;96389.28;;;22.14;56.36
50977;BME280;36992;48.200;12.418;2023-07-30T02:44:56;96376.72;;;22.09;56.34
50977;BME280;36992;48.200;12.418;2023-07-30T02:47:24;96381.06;;;22.14;56.29
50977;BME280;36992;48.200;12.418;2023-07-30T02:49:50;96384.19;;;22.12;55.92
50977;BME280;36992;48.200;12.418;2023-07-30T02:52:17;96397.91;;;22.12;56.76
50977;BME280;36992;48.200;12.418;2023-07-30T02:54:44;96392.00;;;22.10;56.96
50977;BME280;36992;48.200;12.418;2023-07-30T02:57:10;96396.69;;;22.09;56.75
50977;BME280;36992;48.200;12.418;2023-07-30T02:59:38;96399.03;;;22.07;56.74
50977;BME280;36992;48.200;12.418;2023-07-30T03:02:06;96396.66;;;22.06;56.46
50977;BME280;36992;48.200;12.418;2023-07-30T03:04:34;96396.66;;;22.06;56.38
50977;BME280;36992;48.200;12.418;2023-07-30T03:07:01;96393.50;;;22.04;56.30
50977;BME280;36992;48.200;12.418;2023-07-30T03:09:27;96393.06;;;22.02;56.56
50977;BME280;36992;48.200;12.418;2023-07-30T03:11:54;96395.03;;;22.01;56.90
50977;BME280;36992;48.200;12.418;2023-07-30T03:14:20;96392.66;;;22.00;56.70
50977;BME280;36992;48.200;12.418;2023-07-30T03:16:47;96398.13;;;21.96;56.72
50977;BME280;36992;48.200;12.418;2023-07-30T03:19:14;96401.22;;;21.94;56.98
50977;BME280;36992;48.200;12.418;2023-07-30T03:21:41;96401.63;;;21.93;56.99
50977;BME280;36992;48.200;12.418;2023-07-30T03:24:08;96402.72;;;21.88;57.18
50977;BME280;36992;48.200;12.418;2023-07-30T03:26:35;96406.22;;;21.85;57.04
50977;BME280;36992;48.200;12.418;2023-07-30T03:29:01;96421.09;;;21.84;56.95
50977;BME280;36992;48.200;12.418;2023-07-30T03:31:28;96419.09;;;21.81;57.77
50977;BME280;36992;48.200;12.418;2023-07-30T03:33:54;96417.53;;;21.80;57.32
50977;BME280;36992;48.200;12.418;2023-07-30T03:36:21;96411.25;;;21.79;57.49
50977;BME280;36992;48.200;12.418;2023-07-30T03:38:48;96420.63;;;21.78;57.18
50977;BME280;36992;48.200;12.418;2023-07-30T03:41:15;96415.13;;;21.75;57.48
50977;BME280;36992;48.200;12.418;2023-07-30T03:43:41;96417.44;;;21.73;57.99
50977;BME280;36992;48.200;12.418;2023-07-30T03:46:08;96415.06;;;21.71;58.00
50977;BME280;36992;48.200;12.418;2023-07-30T03:48:34;96410.75;;;21.70;57.77
50977;BME280;36992;48.200;12.418;2023-07-30T03:51:01;96411.09;;;21.68;57.97
50977;BME280;36992;48.200;12.418;2023-07-30T03:53:28;96400.13;;;21.68;57.97
50977;BME280;36992;48.200;12.418;2023-07-30T03:55:56;96405.59;;;21.68;58.18
50977;BME280;36992;48.200;12.418;2023-07-30T03:58:22;96406.38;;;21.65;58.12
50977;BME280;36992;48.200;12.418;2023-07-30T04:00:48;96411.84;;;21.65;58.28
50977;BME280;36992;48.200;12.418;2023-07-30T04:03:15;96426.69;;;21.64;58.70
50977;BME280;36992;48.200;12.418;2023-07-30T04:05:42;96421.16;;;21.61;58.45
50977;BME280;36992;48.200;12.418;2023-07-30T04:08:08;96414.91;;;21.60;58.12
50977;BME280;36992;48.200;12.418;2023-07-30T04:10:35;96427.41;;;21.58;57.99
50977;BME280;36992;48.200;12.418;2023-07-30T04:13:02;96422.69;;;21.58;58.39
50977;BME280;36992;48.200;12.418;2023-07-30T04:15:29;96429.75;;;21.55;58.68
50977;BME280;36992;48.200;12.418;2023-07-30T04:17:56;96428.94;;;21.55;58.39
50977;BME280;36992;48.200;12.418;2023-07-30T04:20:22;96430.09;;;21.54;58.06
50977;BME280;36992;48.200;12.418;2023-07-30T04:22:49;96447.72;;;21.53;59.31
50977;BME280;36992;48.200;12.418;2023-07-30T04:25:15;96453.97;;;21.53;58.35
50977;BME280;36992;48.200;12.418;2023-07-30T04:27:42;96458.28;;;21.54;58.25
50977;BME280;36992;48.200;12.418;2023-07-30T04:30:11;96454.81;;;21.58;58.33
50977;BME280;36992;48.200;12.418;2023-07-30T04:32:37;96453.59;;;21.55;58.04
50977;BME280;36992;48.200;12.418;2023-07-30T04:35:04;96459.09;;;21.55;58.35
50977;BME280;36992;48.200;12.418;2023-07-30T04:37:31;96457.56;;;21.58;58.23
50977;BME280;36992;48.200;12.418;2023-07-30T04:39:57;96453.28;;;21.60;58.26
50977;BME280;36992;48.200;12.418;2023-07-30T04:42:24;96460.34;;;21.61;58.61
50977;BME280;36992;48.200;12.418;2023-07-30T04:44:50;96458.00;;;21.63;57.90
50977;BME280;36992;48.200;12.418;2023-07-30T04:47:18;96461.97;;;21.66;57.89
50977;BME280;36992;48.200;12.418;2023-07-30T04:49:45;96469.41;;;21.65;58.45
50977;BME280;36992;48.200;12.418;2023-07-30T04:52:11;96477.63;;;21.65;58.53
50977;BME280;36992;48.200;12.418;2023-07-30T04:54:38;96473.28;;;21.64;58.20
50977;BME280;36992;48.200;12.418;2023-07-30T04:57:05;96476.03;;;21.64;58.01
50977;BME280;36992;48.200;12.418;2023-07-30T04:59:31;96481.50;;;21.64;57.86
50977;BME280;36992;48.200;12.418;2023-07-30T05:01:59;96487.00;;;21.64;58.31
50977;BME280;36992;48.200;12.418;2023-07-30T05:04:26;96480.78;;;21.67;57.94
50977;BME280;36992;48.200;12.418;2023-07-30T05:06:53;96483.53;;;21.67;58.13
50977;BME280;36992;48.200;12.418;2023-07-30T05:09:19;96482.34;;;21.68;57.93
50977;BME280;36992;48.200;12.418;2023-07-30T05:11:46;96483.97;;;21.69;57.84
50977;BME280;36992;48.200;12.418;2023-07-30T05:14:13;96483.22;;;21.73;58.21
50977;BME280;36992;48.200;12.418;2023-07-30T05:16:39;96491.88;;;21.75;57.17
50977;BME280;36992;48.200;12.418;2023-07-30T05:19:06;96497.75;;;21.77;58.33
50977;BME280;36992;48.200;12.418;2023-07-30T05:21:34;96495.09;;;21.80;57.40
50977;BME280;36992;48.200;12.418;2023-07-30T05:24:01;96499.78;;;21.80;57.48
50977;BME280;36992;48.200;12.418;2023-07-30T05:26:27;96501.34;;;21.81;57.59
50977;BME280;36992;48.200;12.418;2023-07-30T05:28:54;96499.00;;;21.83;57.78
50977;BME280;36992;48.200;12.418;2023-07-30T05:31:20;96500.63;;;21.84;58.03
50977;BME280;36992;48.200;12.418;2023-07-30T05:33:47;96499.84;;;21.87;57.99
50977;BME280;36992;48.200;12.418;2023-07-30T05:36:13;96503.75;;;21.86;58.12
50977;BME280;36992;48.200;12.418;2023-07-30T05:38:41;96504.59;;;21.90;58.28
50977;BME280;36992;48.200;12.418;2023-07-30T05:41:08;96504.59;;;21.90;58.26
50977;BME280;36992;48.200;12.418;2023-07-30T05:43:34;96504.59;;;21.90;57.79
50977;BME280;36992;48.200;12.418;2023-07-30T05:46:01;96506.19;;;21.91;58.51
50977;BME280;36992;48.200;12.418;2023-07-30T05:48:27;96507.75;;;21.92;58.07
50977;BME280;36992;48.200;12.418;2023-07-30T05:50:54;96498.38;;;21.93;58.43
50977;BME280;36992;48.200;12.418;2023-07-30T05:53:20;96501.50;;;21.95;57.96
50977;BME280;36992;48.200;12.418;2023-07-30T05:55:48;96508.59;;;21.96;59.03
50977;BME280;36992;48.200;12.418;2023-07-30T05:58:15;96500.38;;;21.96;58.39
50977;BME280;36992;48.200;12.418;2023-07-30T06:00:41;96502.31;;;21.96;58.69
50977;BME280;36992;48.200;12.418;2023-07-30T06:03:08;96504.69;;;21.98;59.28
50977;BME280;36992;48.200;12.418;2023-07-30T06:05:38;96493.78;;;22.01;58.16
50977;BME280;36992;48.200;12.418;2023-07-30T06:08:05;96500.78;;;21.99;58.95
50977;BME280;36992;48.200;12.418;2023-07-30T06:10:34;96505.50;;;22.02;58.80
50977;BME280;36992;48.200;12.418;2023-07-30T06:13:02;96505.91;;;22.00;58.45
50977;BME280;36992;48.200;12.418;2023-07-30T06:15:28;96511.00;;;22.02;58.81
50977;BME280;36992;48.200;12.418;2023-07-30T06:17:55;96517.28;;;22.02;58.26
50977;BME280;36992;48.200;12.418;2023-07-30T06:20:21;96521.22;;;22.05;58.75
50977;BME280;36992;48.200;12.418;2023-07-30T06:22:48;96527.13;;;22.07;58.52
50977;BME280;36992;48.200;12.418;2023-07-30T06:25:15;96525.19;;;22.07;58.89
50977;BME280;36992;48.200;12.418;2023-07-30T06:27:41;96525.59;;;22.09;59.04
50977;BME280;36992;48.200;12.418;2023-07-30T06:30:10;96529.19;;;22.14;59.20
50977;BME280;36992;48.200;12.418;2023-07-30T06:32:37;96528.38;;;22.13;59.30
50977;BME280;36992;48.200;12.418;2023-07-30T06:35:04;96527.22;;;22.14;59.13
50977;BME280;36992;48.200;12.418;2023-07-30T06:37:31;96525.28;;;22.15;59.89
50977;BME280;36992;48.200;12.418;2023-07-30T06:39:58;96524.91;;;22.16;59.72
50977;BME280;36992;48.200;12.418;2023-07-30T06:42:24;96522.94;;;22.17;59.58
50977;BME280;36992;48.200;12.418;2023-07-30T06:44:51;96519.81;;;22.18;59.92
50977;BME280;36992;48.200;12.418;2023-07-30T06:47:18;96523.41;;;22.22;59.32
50977;BME280;36992;48.200;12.418;2023-07-30T06:49:45;96523.03;;;22.24;60.10
50977;BME280;36992;48.200;12.418;2023-07-30T06:52:11;96519.53;;;22.27;59.60
50977;BME280;36992;48.200;12.418;2023-07-30T06:54:38;96519.16;;;22.29;59.21
50977;BME280;36992;48.200;12.418;2023-07-30T06:57:05;96519.97;;;22.33;59.46
50977;BME280;36992;48.200;12.418;2023-07-30T06:59:33;96518.44;;;22.35;59.36
50977;BME280;36992;48.200;12.418;2023-07-30T07:02:00;96518.47;;;22.39;59.07
50977;BME280;36992;48.200;12.418;2023-07-30T07:04:28;96514.63;;;22.44;58.88
50977;BME280;36992;48.200;12.418;2023-07-30T07:06:54;96515.84;;;22.46;58.69
50977;BME280;36992;48.200;12.418;2023-07-30T07:09:21;96510.75;;;22.48;58.73
50977;BME280;36992;48.200;12.418;2023-07-30T07:11:47;96522.59;;;22.53;58.91
50977;BME280;36992;48.200;12.418;2023-07-30T07:14:14;96519.09;;;22.56;58.38
50977;BME280;36992;48.200;12.418;2023-07-30T07:16:40;96522.66;;;22.60;58.82
50977;BME280;36992;48.200;12.418;2023-07-30T07:19:07;96532.88;;;22.63;57.99
50977;BME280;36992;48.200;12.418;2023-07-30T07:21:35;96531.38;;;22.69;56.50
50977;BME280;36992;48.200;12.418;2023-07-30T07:24:01;96529.06;;;22.71;55.61
50977;BME280;36992;48.200;12.418;2023-07-30T07:26:28;96521.25;;;22.77;55.22
50977;BME280;36992;48.200;12.418;2023-07-30T07:28:55;96526.41;;;22.82;55.70
50977;BME280;36992;48.200;12.418;2023-07-30T07:31:22;96528.78;;;22.84;55.63
50977;BME280;36992;48.200;12.418;2023-07-30T07:33:48;96535.50;;;22.90;55.95
50977;BME280;36992;48.200;12.418;2023-07-30T07:36:15;96540.63;;;22.95;55.59
50977;BME280;36992;48.200;12.418;2023-07-30T07:38:43;96538.72;;;22.99;55.35
50977;BME280;36992;48.200;12.418;2023-07-30T07:41:13;96532.53;;;23.06;55.46
50977;BME280;36992;48.200;12.418;2023-07-30T07:43:41;96537.22;;;23.06;54.28
50977;BME280;36992;48.200;12.418;2023-07-30T07:46:07;96532.53;;;23.10;54.31
50977;BME280;36992;48.200;12.418;2023-07-30T07:48:38;96531.03;;;23.16;54.48
50977;BME280;36992;48.200;12.418;2023-07-30T07:51:05;96545.97;;;23.18;54.11
50977;BME280;36992;48.200;12.418;2023-07-30T07:53:32;96521.25;;;23.22;53.36
50977;BME280;36992;48.200;12.418;2023-07-30T07:55:59;96538.97;;;23.28;52.82
50977;BME280;36992;48.200;12.418;2023-07-30T07:58:26;96531.16;;;23.30;52.94
50977;BME280;36992;48.200;12.418;2023-07-30T08:00:54;96535.09;;;23.33;53.42
50977;BME280;36992;48.200;12.418;2023-07-30T08:03:20;96527.69;;;23.37;53.03
50977;BME280;36992;48.200;12.418;2023-07-30T08:05:47;96535.97;;;23.41;53.52
50977;BME280;36992;48.200;12.418;2023-07-30T08:08:14;96533.22;;;23.44;53.58
50977;BME280;36992;48.200;12.418;2023-07-30T08:10:41;96541.50;;;23.48;52.39
50977;BME280;36992;48.200;12.418;2023-07-30T08:13:12;96542.31;;;23.52;51.87
50977;BME280;36992;48.200;12.418;2023-07-30T08:15:39;96541.53;;;23.52;51.84
50977;BME280;36992;48.200;12.418;2023-07-30T08:18:05;96537.63;;;23.56;52.25
50977;BME280;36992;48.200;12.418;2023-07-30T08:20:32;96536.09;;;23.63;51.71
50977;BME280;36992;48.200;12.418;2023-07-30T08:22:58;96533.78;;;23.68;51.56
50977;BME280;36992;48.200;12.418;2023-07-30T08:25:25;96534.59;;;23.76;51.95
50977;BME280;36992;48.200;12.418;2023-07-30T08:27:51;96522.88;;;23.83;51.35
50977;BME280;36992;48.200;12.418;2023-07-30T08:30:19;96522.13;;;23.90;51.01
50977;BME280;36992;48.200;12.418;2023-07-30T08:32:46;96519.75;;;23.92;50.20
50977;BME280;36992;48.200;12.418;2023-07-30T08:35:12;96523.72;;;23.98;50.18
50977;BME280;36992;48.200;12.418;2023-07-30T08:37:39;96511.19;;;24.04;50.02
50977;BME280;36992;48.200;12.418;2023-07-30T08:40:07;96523.03;;;24.12;48.72
50977;BME280;36992;48.200;12.418;2023-07-30T08:42:34;96526.19;;;24.18;48.18
50977;BME280;36992;48.200;12.418;2023-07-30T08:45:01;96515.19;;;24.21;48.29
50977;BME280;36992;48.200;12.418;2023-07-30T08:47:33;96513.28;;;24.29;48.50
50977;BME280;36992;48.200;12.418;2023-07-30T08:50:00;96509.34;;;24.30;48.99
50977;BME280;36992;48.200;12.418;2023-07-30T08:52:29;96506.22;;;24.43;48.54
50977;BME280;36992;48.200;12.418;2023-07-30T08:54:56;96507.41;;;24.49;47.70
50977;BME280;36992;48.200;12.418;2023-07-30T08:57:26;96502.72;;;24.57;48.69
50977;BME280;36992;48.200;12.418;2023-07-30T08:59:58;96498.81;;;24.65;47.85
50977;BME280;36992;48.200;12.418;2023-07-30T09:02:37;96500.00;;;24.75;48.13
50977;BME280;36992;48.200;12.418;2023-07-30T09:05:04;96489.78;;;24.75;47.46
50977;BME280;36992;48.200;12.418;2023-07-30T09:07:31;96501.22;;;24.81;47.69
50977;BME280;36992;48.200;12.418;2023-07-30T09:09:58;96498.84;;;24.83;47.37
50977;BME280;36992;48.200;12.418;2023-07-30T09:12:29;96494.13;;;24.87;47.42
50977;BME280;36992;48.200;12.418;2023-07-30T09:14:56;96491.00;;;24.89;46.86
50977;BME280;36992;48.200;12.418;2023-07-30T09:17:22;96496.13;;;24.90;45.54
50977;BME280;36992;48.200;12.418;2023-07-30T09:19:51;96488.63;;;24.95;45.74
50977;BME280;36992;48.200;12.418;2023-07-30T09:22:25;96482.34;;;25.05;46.95
50977;BME280;36992;48.200;12.418;2023-07-30T09:24:52;96483.09;;;24.98;45.08
50977;BME280;36992;48.200;12.418;2023-07-30T09:27:20;96482.72;;;25.00;45.07
50977;BME280;36992;48.200;12.418;2023-07-30T09:29:51;96474.47;;;25.00;44.87
50977;BME280;36992;48.200;12.418;2023-07-30T09:32:18;96474.47;;;25.00;45.93
50977;BME280;36992;48.200;12.418;2023-07-30T09:34:53;96473.69;;;25.03;45.37
50977;BME280;36992;48.200;12.418;2023-07-30T09:37:21;96476.03;;;25.08;45.35
50977;BME280;36992;48.200;12.418;2023-07-30T09:39:48;96483.91;;;25.10;45.34
50977;BME280;36992;48.200;12.418;2023-07-30T09:42:15;96483.50;;;25.11;45.40
50977;BME280;36992;48.200;12.418;2023-07-30T09:44:41;96479.97;;;25.14;45.26
50977;BME280;36992;48.200;12.418;2023-07-30T09:47:09;96472.09;;;25.16;45.95
50977;BME280;36992;48.200;12.418;2023-07-30T09:49:36;96464.22;;;25.15;45.21
50977;BME280;36992;48.200;12.418;2023-07-30T09:52:03;96474.84;;;25.16;45.82
50977;BME280;36992;48.200;12.418;2023-07-30T09:54:33;96465.00;;;25.19;46.08
50977;BME280;36992;48.200;12.418;2023-07-30T09:57:00;96458.72;;;25.15;45.37
50977;BME280;36992;48.200;12.418;2023-07-30T09:59:27;96471.69;;;25.11;44.14
50977;BME280;36992;48.200;12.418;2023-07-30T10:01:54;96462.66;;;25.10;44.65
50977;BME280;36992;48.200;12.418;2023-07-30T10:04:22;96462.66;;;25.10;44.28
50977;BME280;36992;48.200;12.418;2023-07-30T10:06:52;96459.09;;;25.13;45.34
50977;BME280;36992;48.200;12.418;2023-07-30T10:09:21;96459.09;;;25.13;45.03
50977;BME280;36992;48.200;12.418;2023-07-30T10:11:51;96459.50;;;25.19;43.93
50977;BME280;36992;48.200;12.418;2023-07-30T10:14:21;96449.66;;;25.22;43.03
50977;BME280;36992;48.200;12.418;2023-07-30T10:16:53;96451.59;;;25.32;44.92
50977;BME280;36992;48.200;12.418;2023-07-30T10:19:22;96440.16;;;25.37;43.52
50977;BME280;36992;48.200;12.418;2023-07-30T10:21:49;96458.25;;;25.42;42.45
50977;BME280;36992;48.200;12.418;2023-07-30T10:24:15;96454.34;;;25.50;42.46
50977;BME280;36992;48.200;12.418;2023-07-30T10:26:42;96453.16;;;25.58;42.75
50977;BME280;36992;48.200;12.418;2023-07-30T10:29:15;96442.47;;;25.71;42.97
50977;BME280;36992;48.200;12.418;2023-07-30T10:31:43;96451.13;;;25.73;43.06
50977;BME280;36992;48.200;12.418;2023-07-30T10:34:10;96451.50;;;25.79;42.20
50977;BME280;36992;48.200;12.418;2023-07-30T10:36:42;96449.09;;;25.89;42.84
50977;BME280;36992;48.200;12.418;2023-07-30T10:39:15;96450.66;;;25.93;42.50
50977;BME280;36992;48.200;12.418;2023-07-30T10:41:46;96456.97;;;25.97;41.57
50977;BME280;36992;48.200;12.418;2023-07-30T10:44:22;96438.78;;;26.04;41.83
50977;BME280;36992;48.200;12.418;2023-07-30T10:46:48;96439.59;;;26.00;38.92
50977;BME280;36992;48.200;12.418;2023-07-30T10:49:15;96437.56;;;26.12;40.85
50977;BME280;36992;48.200;12.418;2023-07-30T10:51:41;96437.91;;;26.21;40.88
50977;BME280;36992;48.200;12.418;2023-07-30T10:54:08;96439.47;;;26.30;39.33
50977;BME280;36992;48.200;12.418;2023-07-30T10:56:35;96442.97;;;26.41;39.29
50977;BME280;36992;48.200;12.418;2023-07-30T10:59:03;96440.16;;;26.48;38.67
50977;BME280;36992;48.200;12.418;2023-07-30T11:01:36;96438.47;;;26.62;40.87
50977;BME280;36992;48.200;12.418;2023-07-30T11:04:06;96438.81;;;26.67;38.42
50977;BME280;36992;48.200;12.418;2023-07-30T11:06:32;96443.16;;;26.72;37.45
50977;BME280;36992;48.200;12.418;2023-07-30T11:08:59;96439.16;;;26.77;37.39
50977;BME280;36992;48.200;12.418;2023-07-30T11:11:25;96432.03;;;26.79;38.17
50977;BME280;36992;48.200;12.418;2023-07-30T11:13:52;96433.16;;;26.86;39.31
50977;BME280;36992;48.200;12.418;2023-07-30T11:16:19;96439.06;;;26.91;38.47
50977;BME280;36992;48.200;12.418;2023-07-30T11:18:47;96438.63;;;26.97;38.56
50977;BME280;36992;48.200;12.418;2023-07-30T11:21:15;96446.06;;;27.03;38.23
50977;BME280;36992;48.200;12.418;2023-07-30T11:23:43;96457.50;;;27.05;36.83
50977;BME280;36992;48.200;12.418;2023-07-30T11:26:15;96467.28;;;27.14;37.31
50977;BME280;36992;48.200;12.418;2023-07-30T11:28:43;96461.75;;;27.14;37.03
50977;BME280;36992;48.200;12.418;2023-07-30T11:31:11;96456.22;;;27.14;36.36
50977;BME280;36992;48.200;12.418;2023-07-30T11:33:40;96455.44;;;27.17;36.27
50977;BME280;36992;48.200;12.418;2023-07-30T11:36:10;96463.31;;;27.15;36.90
50977;BME280;36992;48.200;12.418;2023-07-30T11:38:38;96467.69;;;27.16;37.10
50977;BME280;36992;48.200;12.418;2023-07-30T11:41:06;96457.03;;;27.14;36.48
50977;BME280;36992;48.200;12.418;2023-07-30T11:43:36;96466.53;;;27.13;36.56
50977;BME280;36992;48.200;12.418;2023-07-30T11:46:06;96466.88;;;27.15;37.13
50977;BME280;36992;48.200;12.418;2023-07-30T11:48:34;96463.38;;;27.11;37.28
50977;BME280;36992;48.200;12.418;2023-07-30T11:51:00;96456.28;;;27.10;37.62
50977;BME280;36992;48.200;12.418;2023-07-30T11:53:46;96465.31;;;27.14;38.52
50977;BME280;36992;48.200;12.418;2023-07-30T11:56:16;96473.66;;;27.11;38.47
50977;BME280;36992;48.200;12.418;2023-07-30T11:58:43;96471.66;;;27.11;37.88
50977;BME280;36992;48.200;12.418;2023-07-30T12:01:09;96464.97;;;27.09;38.16
50977;BME280;36992;48.200;12.418;2023-07-30T12:03:37;96462.59;;;27.11;38.20
50977;BME280;36992;48.200;12.418;2023-07-30T12:06:04;96468.13;;;27.11;38.05
50977;BME280;36992;48.200;12.418;2023-07-30T12:08:34;96465.31;;;27.14;37.97
50977;BME280;36992;48.200;12.418;2023-07-30T12:11:04;96463.31;;;27.15;37.98
50977;BME280;36992;48.200;12.418;2023-07-30T12:13:31;96475.19;;;27.15;37.61
50977;BME280;36992;48.200;12.418;2023-07-30T12:15:58;96464.91;;;27.16;37.44
50977;BME280;36992;48.200;12.418;2023-07-30T12:18:25;96479.47;;;27.20;38.16
50977;BME280;36992;48.200;12.418;2023-07-30T12:20:53;96470.78;;;27.22;36.24
50977;BME280;36992;48.200;12.418;2023-07-30T12:23:20;96464.84;;;27.23;35.71
50977;BME280;36992;48.200;12.418;2023-07-30T12:25:47;96463.66;;;27.24;35.74
50977;BME280;36992;48.200;12.418;2023-07-30T12:28:15;96463.25;;;27.26;36.19
50977;BME280;36992;48.200;12.418;2023-07-30T12:30:41;96491.31;;;27.24;35.45
50977;BME280;36992;48.200;12.418;2023-07-30T12:33:08;96477.47;;;27.24;36.51
50977;BME280;36992;48.200;12.418;2023-07-30T12:35:34;96487.75;;;27.24;37.43
50977;BME280;36992;48.200;12.418;2023-07-30T12:38:01;96496.03;;;27.24;37.86
50977;BME280;36992;48.200;12.418;2023-07-30T12:40:28;96503.56;;;27.23;37.72
50977;BME280;36992;48.200;12.418;2023-07-30T12:42:59;96490.16;;;27.18;38.37
50977;BME280;36992;48.200;12.418;2023-07-30T12:45:27;96488.59;;;27.17;38.31
50977;BME280;36992;48.200;12.418;2023-07-30T12:47:54;96506.00;;;27.14;37.69
50977;BME280;36992;48.200;12.418;2023-07-30T12:50:20;96506.41;;;27.09;38.31